Time;durP1;ratioP1;P1;durP2;ratioP2;P2;SDS_P1;SDS_P2;PMS_P1;PMS_P2;Temp;Humidity;BMP_temperature;BMP_pressure;BME280_temperature;BME280_humidity;BME280_pressure;Samples;Min_cycle;Max_cycle;Signal;HPM_P1;HPM_P2
2022/10/18 00:00:55;;;;;;;12.13;6.40;;;9.30;99.90;;;;;;4357605;28;657499;-68
2022/10/18 00:03:44;;;;;;;11.27;5.77;;;9.30;99.90;;;;;;4373274;28;659298;-68
2022/10/18 00:06:31;;;;;;;13.70;5.90;;;9.40;99.90;;;;;;4355111;28;658035;-68
2022/10/18 00:09:19;;;;;;;10.43;6.30;;;9.30;99.90;;;;;;4379384;28;658658;-68
2022/10/18 00:12:06;;;;;;;16.25;6.55;;;9.30;99.90;;;;;;4353042;28;657507;-68
2022/10/18 00:14:53;;;;;;;14.63;6.18;;;9.20;99.90;;;;;;4373713;28;658095;-68
2022/10/18 00:17:41;;;;;;;13.33;6.20;;;9.20;99.90;;;;;;4353389;28;657342;-68
2022/10/18 00:20:29;;;;;;;13.40;6.90;;;9.20;99.90;;;;;;4381821;28;658490;-68
2022/10/18 00:23:16;;;;;;;17.33;6.53;;;9.10;99.90;;;;;;4360129;28;658009;-68
2022/10/18 00:26:05;;;;;;;9.97;6.00;;;9.10;99.90;;;;;;4377844;28;658811;-68
2022/10/18 00:28:53;;;;;;;16.17;6.13;;;9.10;99.90;;;;;;4361416;28;657797;-68
2022/10/18 00:31:40;;;;;;;13.67;6.27;;;9.10;99.90;;;;;;4357134;28;657521;-68
2022/10/18 00:34:27;;;;;;;14.13;6.50;;;9.10;99.90;;;;;;4376376;28;658608;-68
2022/10/18 00:37:17;;;;;;;12.53;6.17;;;9.20;99.90;;;;;;4377669;28;657503;-68
2022/10/18 00:40:04;;;;;;;12.37;6.03;;;9.20;99.90;;;;;;4374776;28;658379;-68
2022/10/18 00:42:51;;;;;;;10.07;6.40;;;9.20;99.90;;;;;;4355646;28;657650;-68
2022/10/18 00:45:39;;;;;;;12.43;6.83;;;9.20;99.90;;;;;;4375745;28;658305;-68
2022/10/18 00:48:26;;;;;;;14.47;6.07;;;9.20;99.90;;;;;;4358254;28;657925;-68
2022/10/18 00:51:13;;;;;;;12.18;6.43;;;9.20;99.90;;;;;;4376038;28;658019;-68
2022/10/18 00:54:02;;;;;;;11.10;6.63;;;9.10;99.90;;;;;;4359672;28;657306;-68
2022/10/18 00:56:49;;;;;;;14.87;7.40;;;9.10;99.90;;;;;;4376014;28;657628;-68
2022/10/18 00:59:36;;;;;;;12.17;6.90;;;9.20;99.90;;;;;;4357020;28;657503;-68
2022/10/18 01:02:23;;;;;;;14.70;7.80;;;9.30;99.90;;;;;;4376863;28;658538;-68
2022/10/18 01:05:11;;;;;;;14.73;7.07;;;9.50;99.90;;;;;;4358865;28;657693;-68
2022/10/18 01:08:12;;;;;;;18.00;6.57;;;9.40;99.90;;;;;;4372298;28;659012;-68
2022/10/18 01:11:08;;;;;;;14.77;7.10;;;9.40;99.90;;;;;;4353538;28;657044;-68
2022/10/18 01:14:01;;;;;;;13.90;7.33;;;9.30;99.90;;;;;;4329649;28;657361;-69
2022/10/18 01:16:51;;;;;;;14.43;7.03;;;9.30;99.90;;;;;;4352770;28;658733;-69
2022/10/18 01:20:32;;;;;;;13.47;7.33;;;9.20;99.90;;;;;;4350811;28;657458;-69
2022/10/18 01:23:20;;;;;;;21.67;7.70;;;9.20;99.90;;;;;;4284116;29;658335;-69
2022/10/18 01:26:18;;;;;;;19.87;7.60;;;9.20;99.90;;;;;;4352815;28;658123;-69
2022/10/18 01:29:12;;;;;;;20.53;8.10;;;9.20;99.90;;;;;;4334473;28;657949;-69
2022/10/18 01:32:01;;;;;;;18.90;7.17;;;9.20;99.90;;;;;;4347743;28;657804;-69
2022/10/18 01:34:48;;;;;;;14.73;8.10;;;9.20;99.90;;;;;;4351278;28;658435;-69
2022/10/18 01:37:35;;;;;;;18.83;7.87;;;9.10;99.90;;;;;;4351111;28;657473;-69
2022/10/18 01:40:23;;;;;;;19.10;8.30;;;9.20;99.90;;;;;;4376352;28;659504;-69
2022/10/18 01:43:10;;;;;;;15.30;7.27;;;9.10;99.90;;;;;;4365665;28;658521;-69
2022/10/18 01:45:57;;;;;;;13.70;7.80;;;9.10;99.90;;;;;;4380018;28;658669;-69
2022/10/18 01:48:46;;;;;;;13.40;7.57;;;9.10;99.90;;;;;;4370430;28;657102;-69
2022/10/18 01:51:33;;;;;;;17.53;7.73;;;9.10;99.90;;;;;;4357421;28;657831;-69
2022/10/18 01:54:22;;;;;;;20.50;8.07;;;9.10;99.90;;;;;;4361487;28;657742;-69
2022/10/18 01:57:13;;;;;;;16.97;8.87;;;9.10;99.90;;;;;;4379586;28;657978;-69
2022/10/18 02:00:01;;;;;;;18.30;9.23;;;9.10;99.90;;;;;;4330618;28;657596;-70
2022/10/18 02:02:50;;;;;;;19.13;9.80;;;9.10;99.90;;;;;;4369658;28;658698;-69
2022/10/18 02:05:40;;;;;;;18.27;9.77;;;9.20;99.90;;;;;;4348102;28;659316;-69
2022/10/18 02:08:28;;;;;;;25.13;10.07;;;9.20;99.90;;;;;;4347601;28;658657;-69
2022/10/18 02:11:16;;;;;;;21.73;10.40;;;9.10;99.90;;;;;;4355288;28;658690;-69
2022/10/18 02:14:04;;;;;;;16.77;9.03;;;9.20;99.90;;;;;;4363203;28;660344;-69
2022/10/18 02:16:52;;;;;;;19.70;10.03;;;9.20;99.90;;;;;;4351081;28;658558;-69
2022/10/18 02:19:41;;;;;;;19.13;9.73;;;9.20;99.90;;;;;;4372325;28;658516;-69
2022/10/18 02:22:31;;;;;;;20.40;9.77;;;9.20;99.90;;;;;;4374266;28;658219;-70
2022/10/18 02:25:20;;;;;;;21.80;9.27;;;9.10;99.90;;;;;;4351687;28;658763;-69
2022/10/18 02:28:07;;;;;;;17.80;8.80;;;9.10;99.90;;;;;;4353059;28;659333;-69
2022/10/18 02:31:02;;;;;;;20.33;10.23;;;9.00;99.90;;;;;;4372082;28;657937;-69
2022/10/18 02:33:53;;;;;;;17.83;9.07;;;9.00;99.90;;;;;;4344337;28;658985;-69
2022/10/18 02:36:42;;;;;;;20.90;9.50;;;9.00;99.90;;;;;;4364390;28;657674;-69
2022/10/18 02:39:32;;;;;;;16.03;8.67;;;9.10;99.90;;;;;;4371871;28;657932;-69
2022/10/18 02:42:19;;;;;;;19.57;8.77;;;9.10;99.90;;;;;;4347471;28;658189;-69
2022/10/18 02:45:07;;;;;;;17.07;8.80;;;9.10;99.90;;;;;;4356690;28;657396;-69
2022/10/18 02:47:54;;;;;;;23.33;8.43;;;9.20;99.90;;;;;;4372091;28;657549;-69
2022/10/18 02:50:41;;;;;;;17.83;8.70;;;9.20;99.90;;;;;;4350448;28;657489;-69
2022/10/18 02:53:29;;;;;;;24.27;8.73;;;9.20;99.90;;;;;;4372751;28;657508;-69
2022/10/18 02:56:17;;;;;;;13.50;7.37;;;9.30;99.90;;;;;;4347570;28;657606;-69
2022/10/18 02:59:06;;;;;;;16.50;8.33;;;9.20;99.90;;;;;;4365210;28;657627;-69
2022/10/18 03:01:53;;;;;;;20.23;8.90;;;9.30;99.90;;;;;;4348457;28;658423;-70
2022/10/18 03:04:40;;;;;;;17.10;8.17;;;9.40;99.90;;;;;;4352418;28;657697;-70
2022/10/18 03:07:27;;;;;;;18.42;8.57;;;9.40;99.90;;;;;;4372598;28;657981;-70
2022/10/18 03:10:15;;;;;;;15.50;8.33;;;9.40;99.90;;;;;;4370162;28;657364;-69
2022/10/18 03:13:03;;;;;;;15.13;8.13;;;9.40;99.90;;;;;;4353617;28;658666;-69
2022/10/18 03:15:50;;;;;;;16.40;7.43;;;9.50;99.90;;;;;;4352425;28;657867;-70
2022/10/18 03:18:37;;;;;;;21.73;8.67;;;9.40;99.90;;;;;;4369883;28;658957;-69
2022/10/18 03:21:25;;;;;;;20.60;9.57;;;9.40;99.90;;;;;;4368185;28;657821;-69
2022/10/18 03:24:12;;;;;;;17.73;8.03;;;9.50;99.90;;;;;;4376056;28;657829;-69
2022/10/18 03:26:59;;;;;;;16.00;8.03;;;9.50;99.90;;;;;;4372582;28;657518;-69
2022/10/18 03:29:48;;;;;;;17.10;8.53;;;9.40;99.90;;;;;;4351383;28;658336;-69
2022/10/18 03:32:35;;;;;;;12.30;7.67;;;9.50;99.90;;;;;;4350352;28;657554;-69
2022/10/18 03:35:22;;;;;;;16.03;7.80;;;9.40;99.90;;;;;;4370317;28;658233;-70
2022/10/18 03:38:09;;;;;;;15.57;8.03;;;9.50;99.90;;;;;;4358260;28;657978;-70
2022/10/18 03:40:57;;;;;;;12.50;7.63;;;9.50;99.90;;;;;;4337954;28;657600;-69
2022/10/18 03:43:44;;;;;;;23.90;8.33;;;9.40;99.90;;;;;;4359727;28;658078;-69
2022/10/18 03:46:32;;;;;;;13.53;8.20;;;9.40;99.90;;;;;;4332126;28;658125;-69
2022/10/18 03:49:19;;;;;;;16.80;8.20;;;9.40;99.90;;;;;;4360612;28;657533;-70
2022/10/18 03:52:07;;;;;;;15.23;7.73;;;9.40;99.90;;;;;;4342407;28;658295;-69
2022/10/18 03:54:54;;;;;;;15.73;8.30;;;9.30;99.90;;;;;;4358615;28;657003;-70
2022/10/18 03:57:41;;;;;;;16.93;7.90;;;9.30;99.90;;;;;;4341294;28;657279;-69
2022/10/18 04:00:28;;;;;;;17.97;8.53;;;9.20;99.90;;;;;;4362278;28;658483;-69
2022/10/18 04:03:17;;;;;;;19.55;7.90;;;9.20;99.90;;;;;;4343224;28;658236;-69
2022/10/18 04:06:04;;;;;;;13.43;8.53;;;9.20;99.90;;;;;;4367507;28;657789;-69
2022/10/18 04:08:51;;;;;;;19.83;8.43;;;9.10;99.90;;;;;;4337146;28;657856;-69
2022/10/18 04:11:38;;;;;;;14.57;7.50;;;9.10;99.90;;;;;;4363561;28;658640;-69
2022/10/18 04:14:25;;;;;;;18.67;8.07;;;9.00;99.90;;;;;;4341352;28;657828;-69
2022/10/18 04:17:13;;;;;;;16.87;7.67;;;9.00;99.90;;;;;;4362626;28;658921;-69
2022/10/18 04:20:01;;;;;;;13.47;7.27;;;9.00;99.90;;;;;;4352035;28;657905;-69
2022/10/18 04:22:49;;;;;;;14.10;7.97;;;9.00;99.90;;;;;;4361582;28;658911;-69
2022/10/18 04:25:36;;;;;;;14.97;8.00;;;8.90;99.90;;;;;;4344194;28;657512;-69
2022/10/18 04:28:23;;;;;;;14.63;7.77;;;8.90;99.90;;;;;;4365894;28;658496;-69
2022/10/18 04:31:11;;;;;;;14.73;8.17;;;8.80;99.90;;;;;;4331436;28;657549;-69
2022/10/18 04:33:58;;;;;;;15.20;8.63;;;8.80;99.90;;;;;;4359718;28;657946;-69
2022/10/18 04:36:46;;;;;;;12.60;7.77;;;8.80;99.90;;;;;;4348921;28;657690;-69
2022/10/18 04:39:34;;;;;;;14.43;8.07;;;8.80;99.90;;;;;;4378362;28;658232;-69
2022/10/18 04:42:21;;;;;;;15.93;8.57;;;8.80;99.90;;;;;;4356756;28;657370;-69
2022/10/18 04:45:09;;;;;;;15.90;9.17;;;8.70;99.90;;;;;;4373981;28;658459;-69
2022/10/18 04:47:56;;;;;;;23.57;9.20;;;8.70;99.90;;;;;;4351289;28;657706;-69
2022/10/18 04:50:43;;;;;;;14.23;9.23;;;8.70;99.90;;;;;;4376282;28;657754;-69
2022/10/18 04:53:32;;;;;;;20.00;8.67;;;8.70;99.90;;;;;;4348029;28;657931;-69
2022/10/18 04:56:19;;;;;;;20.42;8.05;;;8.70;99.90;;;;;;4375209;28;658063;-69
2022/10/18 04:59:06;;;;;;;16.60;8.63;;;8.70;99.90;;;;;;4347993;28;658066;-69
2022/10/18 05:01:53;;;;;;;22.17;9.20;;;8.70;99.90;;;;;;4373085;28;658852;-69
2022/10/18 05:04:41;;;;;;;17.03;9.63;;;8.60;99.90;;;;;;4351915;28;657546;-69
2022/10/18 05:07:28;;;;;;;24.03;9.70;;;8.70;99.90;;;;;;4370962;28;658354;-68
2022/10/18 05:10:17;;;;;;;17.87;9.67;;;8.70;99.90;;;;;;4354096;28;657385;-69
2022/10/18 05:13:04;;;;;;;20.17;9.20;;;8.70;99.90;;;;;;4373059;28;657696;-69
2022/10/18 05:15:51;;;;;;;15.53;8.70;;;8.70;99.90;;;;;;4355179;28;657468;-69
2022/10/18 05:18:38;;;;;;;18.37;8.70;;;8.70;99.90;;;;;;4366202;28;658501;-68
2022/10/18 05:21:25;;;;;;;13.90;8.43;;;8.60;99.90;;;;;;4356948;28;657492;-68
2022/10/18 05:24:12;;;;;;;18.97;8.90;;;8.60;99.90;;;;;;4371830;28;659161;-69
2022/10/18 05:27:01;;;;;;;18.07;8.80;;;8.60;99.90;;;;;;4372157;28;657641;-68
2022/10/18 05:29:49;;;;;;;15.17;7.93;;;8.60;99.90;;;;;;4372151;28;657341;-68
2022/10/18 05:32:36;;;;;;;20.87;8.53;;;8.70;99.90;;;;;;4353416;28;658328;-69
2022/10/18 05:35:23;;;;;;;23.73;8.60;;;8.70;99.90;;;;;;4372332;28;658784;-69
2022/10/18 05:38:10;;;;;;;17.67;8.73;;;9.10;99.90;;;;;;4352551;28;657863;-68
2022/10/18 05:40:57;;;;;;;18.97;8.30;;;9.50;99.90;;;;;;4376138;28;657041;-68
2022/10/18 05:43:46;;;;;;;13.30;7.90;;;9.80;99.90;;;;;;4373137;28;658938;-68
2022/10/18 05:46:33;;;;;;;14.40;8.07;;;9.80;99.90;;;;;;4346424;28;658917;-69
2022/10/18 05:49:20;;;;;;;17.00;8.03;;;10.00;99.90;;;;;;4355141;28;657832;-69
2022/10/18 05:52:08;;;;;;;14.20;7.40;;;10.20;99.90;;;;;;4370334;28;659340;-68
2022/10/18 05:54:55;;;;;;;16.67;7.03;;;10.40;99.90;;;;;;4364265;28;658673;-69
2022/10/18 05:57:42;;;;;;;14.37;7.23;;;10.60;99.90;;;;;;4377975;28;659011;-69
2022/10/18 06:00:31;;;;;;;13.40;7.87;;;10.90;99.90;;;;;;4371279;28;658577;-69
2022/10/18 06:03:18;;;;;;;13.60;7.10;;;11.00;99.90;;;;;;4345703;28;659450;-69
2022/10/18 06:06:06;;;;;;;13.00;6.60;;;11.10;99.90;;;;;;4354262;28;658546;-69
2022/10/18 06:08:53;;;;;;;14.70;7.63;;;11.20;99.90;;;;;;4367190;28;658750;-68
2022/10/18 06:11:40;;;;;;;15.10;7.00;;;11.60;99.90;;;;;;4346866;28;658980;-69
2022/10/18 06:14:28;;;;;;;12.93;6.30;;;11.80;99.90;;;;;;4366030;28;659634;-69
2022/10/18 06:17:17;;;;;;;14.97;6.80;;;12.10;99.90;;;;;;4351411;28;658485;-69
2022/10/18 06:20:05;;;;;;;16.73;6.50;;;12.30;99.90;;;;;;4369087;28;658947;-69
2022/10/18 06:22:52;;;;;;;13.60;6.43;;;12.60;99.90;;;;;;4345707;28;660382;-69
2022/10/18 06:25:40;;;;;;;10.63;6.50;;;12.80;99.90;;;;;;4365532;28;658499;-68
2022/10/18 06:28:28;;;;;;;13.00;6.70;;;12.80;99.90;;;;;;4372691;28;659513;-69
2022/10/18 06:31:15;;;;;;;11.13;6.10;;;13.00;99.90;;;;;;4351030;28;658534;-68
2022/10/18 06:34:04;;;;;;;11.60;6.10;;;13.10;99.90;;;;;;4366399;28;659443;-69
2022/10/18 06:36:51;;;;;;;14.27;6.33;;;13.20;99.90;;;;;;4349488;28;659103;-69
2022/10/18 06:39:39;;;;;;;12.27;6.27;;;13.30;99.90;;;;;;4371830;28;658505;-69
2022/10/18 06:42:26;;;;;;;10.33;5.47;;;13.40;99.90;;;;;;4353342;28;658417;-69
2022/10/18 06:45:14;;;;;;;12.97;6.20;;;13.40;99.90;;;;;;4369881;28;658944;-69
2022/10/18 06:48:01;;;;;;;13.03;5.90;;;13.40;99.90;;;;;;4351283;28;658904;-69
2022/10/18 06:50:55;;;;;;;10.70;6.43;;;13.50;99.90;;;;;;4370817;28;660009;-69
2022/10/18 06:53:42;;;;;;;12.10;5.87;;;13.60;99.90;;;;;;4317381;28;659266;-69
2022/10/18 06:56:30;;;;;;;10.37;6.33;;;13.70;99.90;;;;;;4368294;28;659491;-68
2022/10/18 06:59:17;;;;;;;13.07;6.60;;;13.70;99.90;;;;;;4347034;28;659607;-68
2022/10/18 07:02:04;;;;;;;14.77;6.80;;;13.80;99.90;;;;;;4367354;28;658346;-69
2022/10/18 07:04:51;;;;;;;13.77;6.40;;;13.90;99.90;;;;;;4345757;28;658396;-69
2022/10/18 07:07:40;;;;;;;15.67;6.40;;;14.00;99.90;;;;;;4365800;28;659819;-69
2022/10/18 07:10:27;;;;;;;17.90;6.03;;;14.10;99.90;;;;;;4338483;28;660080;-69
2022/10/18 07:13:14;;;;;;;14.70;6.47;;;14.10;99.90;;;;;;4368740;28;659325;-69
2022/10/18 07:16:02;;;;;;;15.65;6.57;;;14.20;99.90;;;;;;4349219;28;659251;-69
2022/10/18 07:18:51;;;;;;;10.67;6.10;;;14.30;99.90;;;;;;4366314;28;658473;-69
2022/10/18 07:21:38;;;;;;;13.87;6.37;;;14.20;99.90;;;;;;4371116;28;659409;-69
2022/10/18 07:24:27;;;;;;;14.67;6.00;;;14.40;99.90;;;;;;4356164;28;658709;-69
2022/10/18 07:27:14;;;;;;;12.70;6.10;;;14.60;99.90;;;;;;4366860;28;658451;-69
2022/10/18 07:30:01;;;;;;;15.47;5.90;;;14.70;99.90;;;;;;4345129;28;658612;-69
2022/10/18 07:32:48;;;;;;;12.27;6.40;;;14.80;99.90;;;;;;4375240;28;658996;-69
2022/10/18 07:35:35;;;;;;;13.13;6.47;;;15.00;99.90;;;;;;4344885;28;659119;-69
2022/10/18 07:38:22;;;;;;;17.63;6.60;;;15.30;99.90;;;;;;4373606;28;659020;-69
2022/10/18 07:41:12;;;;;;;14.40;6.40;;;15.50;99.90;;;;;;4371705;28;658991;-69
2022/10/18 07:44:00;;;;;;;11.83;6.87;;;15.60;99.90;;;;;;4365249;28;659012;-69
2022/10/18 07:46:47;;;;;;;15.17;6.40;;;15.70;99.90;;;;;;4368030;28;659135;-69
2022/10/18 07:49:34;;;;;;;15.43;6.50;;;15.80;99.90;;;;;;4367349;28;658772;-69
2022/10/18 07:52:22;;;;;;;16.40;7.00;;;16.00;99.90;;;;;;4354222;28;658758;-69
2022/10/18 07:55:09;;;;;;;13.80;6.80;;;16.20;99.90;;;;;;4365484;28;658194;-69
2022/10/18 07:57:59;;;;;;;14.80;5.87;;;16.30;99.90;;;;;;4354360;28;659163;-69
2022/10/18 08:00:47;;;;;;;13.13;6.13;;;16.00;99.90;;;;;;4351543;28;658539;-70
2022/10/18 08:03:34;;;;;;;10.03;5.77;;;15.90;99.90;;;;;;4367412;28;658722;-69
2022/10/18 08:06:22;;;;;;;11.47;5.57;;;15.90;99.40;;;;;;4354021;28;658940;-68
2022/10/18 08:09:09;;;;;;;13.30;6.00;;;15.90;98.50;;;;;;4368313;28;658740;-68
2022/10/18 08:11:56;;;;;;;7.57;5.03;;;16.20;98.00;;;;;;4345468;28;659255;-68
2022/10/18 08:14:45;;;;;;;10.23;5.47;;;16.50;98.20;;;;;;4374669;28;658051;-69
2022/10/18 08:17:33;;;;;;;10.60;6.00;;;16.70;96.10;;;;;;4350921;28;659070;-69
2022/10/18 08:20:20;;;;;;;11.83;5.17;;;16.80;95.20;;;;;;4365017;28;659774;-68
2022/10/18 08:23:08;;;;;;;10.07;4.80;;;16.80;94.50;;;;;;4373230;28;659401;-69
2022/10/18 08:25:55;;;;;;;15.83;6.20;;;16.80;93.30;;;;;;4360412;28;659313;-69
2022/10/18 08:28:42;;;;;;;9.73;5.60;;;17.00;94.70;;;;;;4369194;28;659669;-69
2022/10/18 08:31:31;;;;;;;10.33;6.40;;;16.90;92.50;;;;;;4368421;28;658098;-69
2022/10/18 08:34:19;;;;;;;12.20;5.67;;;17.40;93.70;;;;;;4366948;28;659808;-69
2022/10/18 08:37:06;;;;;;;11.23;5.87;;;17.30;93.80;;;;;;4346118;28;658731;-69
2022/10/18 08:39:53;;;;;;;12.37;5.67;;;17.40;91.40;;;;;;4370140;28;659769;-69
2022/10/18 08:42:47;;;;;;;12.47;5.17;;;17.60;90.60;;;;;;4348982;28;658660;-69
2022/10/18 08:45:36;;;;;;;8.90;4.90;;;18.00;88.30;;;;;;4345965;28;659208;-69
2022/10/18 08:48:28;;;;;;;13.50;6.23;;;17.90;84.80;;;;;;4346991;28;658184;-69
2022/10/18 08:51:21;;;;;;;15.57;6.50;;;17.90;87.90;;;;;;4331168;28;658550;-68
2022/10/18 08:54:11;;;;;;;9.63;5.43;;;18.10;82.60;;;;;;4347324;28;659644;-68
2022/10/18 08:57:00;;;;;;;12.07;5.37;;;18.20;82.70;;;;;;4353974;28;660005;-69
2022/10/18 08:59:47;;;;;;;12.30;4.90;;;18.10;82.30;;;;;;4351876;28;659953;-69
2022/10/18 09:02:41;;;;;;;12.00;5.53;;;18.20;81.50;;;;;;4372248;28;658427;-69
2022/10/18 09:05:32;;;;;;;10.87;5.57;;;18.00;83.00;;;;;;4345088;28;658997;-69
2022/10/18 09:08:30;;;;;;;15.07;5.63;;;18.40;82.10;;;;;;4344770;28;658691;-69
2022/10/18 09:11:38;;;;;;;10.70;5.30;;;18.10;78.60;;;;;;4319411;28;660149;-69
2022/10/18 09:14:50;;;;;;;7.73;4.40;;;18.20;79.80;;;;;;4343839;28;658940;-69
2022/10/18 09:17:42;;;;;;;7.20;4.30;;;18.80;77.70;;;;;;4327323;28;658258;-69
2022/10/18 09:20:32;;;;;;;10.93;5.70;;;19.20;72.50;;;;;;4347971;28;657827;-69
2022/10/18 09:23:20;;;;;;;12.37;5.70;;;19.30;74.70;;;;;;4346481;28;658969;-69
2022/10/18 09:26:10;;;;;;;11.30;5.70;;;19.40;76.40;;;;;;4346736;28;659309;-69
2022/10/18 09:29:02;;;;;;;12.40;5.33;;;19.50;74.80;;;;;;4353597;28;659026;-69
2022/10/18 09:31:52;;;;;;;8.07;4.40;;;19.10;69.20;;;;;;4367733;28;659068;-69
2022/10/18 09:34:41;;;;;;;8.93;4.83;;;18.90;70.30;;;;;;4366890;28;657331;-69
2022/10/18 09:37:30;;;;;;;8.57;4.60;;;19.50;70.70;;;;;;4349748;28;658596;-69
2022/10/18 09:40:19;;;;;;;7.57;4.93;;;19.40;67.10;;;;;;4353005;28;659505;-69
2022/10/18 09:43:07;;;;;;;8.17;4.60;;;19.00;68.30;;;;;;4351310;28;657511;-69
2022/10/18 09:45:54;;;;;;;12.70;5.10;;;19.30;68.40;;;;;;4366531;28;657808;-69
2022/10/18 09:48:44;;;;;;;10.10;4.70;;;19.70;67.00;;;;;;4352117;28;659044;-69
2022/10/18 09:51:34;;;;;;;12.87;4.93;;;19.90;65.90;;;;;;4352990;28;658589;-69
2022/10/18 09:54:25;;;;;;;9.53;5.17;;;20.00;67.90;;;;;;4349581;28;658686;-68
2022/10/18 09:57:15;;;;;;;7.93;4.60;;;20.00;64.00;;;;;;4350386;28;658799;-68
2022/10/18 10:00:03;;;;;;;11.70;5.87;;;20.00;67.50;;;;;;4347934;28;658630;-69
2022/10/18 10:02:50;;;;;;;8.63;4.43;;;20.00;63.70;;;;;;4359584;28;658373;-69
2022/10/18 10:05:37;;;;;;;9.00;4.90;;;20.30;64.80;;;;;;4374613;28;658260;-68
2022/10/18 10:08:26;;;;;;;9.33;5.93;;;20.50;65.00;;;;;;4372344;28;657420;-69
2022/10/18 10:11:36;;;;;;;13.87;5.63;;;20.50;64.10;;;;;;4347646;28;658567;-70
2022/10/18 10:14:25;;;;;;;12.47;4.97;;;19.80;65.10;;;;;;4345910;28;659493;-69
2022/10/18 10:17:21;;;;;;;13.43;5.40;;;19.70;63.40;;;;;;4350975;28;659272;-69
2022/10/18 10:20:15;;;;;;;9.03;4.83;;;20.30;65.90;;;;;;4343536;28;658697;-69
2022/10/18 10:23:07;;;;;;;18.77;6.13;;;20.70;63.30;;;;;;4350627;28;657361;-69
2022/10/18 10:25:55;;;;;;;15.17;5.60;;;20.70;67.30;;;;;;4342115;28;658295;-69
2022/10/18 10:28:45;;;;;;;14.13;5.63;;;21.10;63.70;;;;;;4348215;28;659423;-69
2022/10/18 10:31:32;;;;;;;10.63;4.33;;;21.80;62.90;;;;;;4344803;28;659861;-68
2022/10/18 10:34:20;;;;;;;8.63;4.83;;;22.40;59.90;;;;;;4365647;28;659326;-69
2022/10/18 10:37:24;;;;;;;7.67;4.07;;;22.50;58.80;;;;;;4347383;28;659062;-68
2022/10/18 10:40:17;;;;;;;9.27;4.67;;;22.20;56.30;;;;;;4324786;28;658419;-69
2022/10/18 10:43:16;;;;;;;11.20;4.57;;;21.60;56.80;;;;;;4348240;28;657690;-68
2022/10/18 10:46:06;;;;;;;6.33;4.20;;;21.80;58.60;;;;;;4343858;28;658583;-69
2022/10/18 10:48:55;;;;;;;9.23;4.10;;;21.40;55.70;;;;;;4346472;28;657872;-69
2022/10/18 10:51:42;;;;;;;8.27;4.50;;;21.30;55.30;;;;;;4353976;28;657758;-68
2022/10/18 10:54:34;;;;;;;12.57;4.70;;;21.40;57.10;;;;;;4371708;28;657815;-68
2022/10/18 10:57:22;;;;;;;11.83;4.60;;;21.40;56.60;;;;;;4342862;28;659102;-68
2022/10/18 11:00:26;;;;;;;9.57;4.60;;;21.90;57.30;;;;;;4362396;28;659117;-69
2022/10/18 11:03:17;;;;;;;8.97;4.57;;;21.70;57.60;;;;;;4342750;28;658099;-69
2022/10/18 11:06:04;;;;;;;11.57;3.63;;;22.70;57.40;;;;;;4344520;28;658440;-69
2022/10/18 11:08:51;;;;;;;9.13;4.10;;;23.40;52.10;;;;;;4347270;28;658839;-69
2022/10/18 11:11:40;;;;;;;7.83;4.03;;;22.10;55.10;;;;;;4373284;28;657439;-69
2022/10/18 11:14:29;;;;;;;5.73;3.47;;;22.60;55.80;;;;;;4345597;28;658780;-68
2022/10/18 11:17:20;;;;;;;5.80;3.50;;;22.40;53.00;;;;;;4352748;28;657715;-69
2022/10/18 11:20:22;;;;;;;7.77;4.33;;;22.30;56.10;;;;;;4345441;28;658316;-68
2022/10/18 11:23:11;;;;;;;7.20;3.70;;;22.10;54.50;;;;;;4348172;28;657874;-69
2022/10/18 11:26:26;;;;;;;7.60;4.03;;;22.70;53.40;;;;;;4342262;28;657803;-69
2022/10/18 11:29:30;;;;;;;6.07;4.07;;;22.50;54.70;;;;;;4349515;28;657727;-69
2022/10/18 11:32:20;;;;;;;10.10;4.00;;;23.00;54.60;;;;;;4316691;28;658499;-69
2022/10/18 11:35:20;;;;;;;10.33;3.83;;;23.00;52.40;;;;;;4347165;28;659497;-69
2022/10/18 11:38:15;;;;;;;7.40;3.60;;;23.10;51.20;;;;;;4324712;28;658822;-68
2022/10/18 11:41:21;;;;;;;7.77;3.87;;;22.80;51.00;;;;;;4326297;28;658578;-69
2022/10/18 11:44:13;;;;;;;6.07;3.40;;;23.10;52.40;;;;;;4349482;28;657829;-69
2022/10/18 11:47:02;;;;;;;9.93;3.70;;;22.80;51.50;;;;;;4333510;28;657728;-69
2022/10/18 11:49:57;;;;;;;6.33;3.87;;;22.80;50.70;;;;;;4366251;28;657400;-69
2022/10/18 11:52:48;;;;;;;9.83;3.90;;;23.10;49.70;;;;;;4351381;28;657698;-69
2022/10/18 11:55:43;;;;;;;9.63;3.80;;;23.40;50.00;;;;;;4331283;28;657913;-69
2022/10/18 11:58:38;;;;;;;7.00;3.77;;;23.10;49.40;;;;;;4329681;28;657840;-69
2022/10/18 12:01:28;;;;;;;7.43;3.90;;;23.50;48.80;;;;;;4332385;28;658141;-69
2022/10/18 12:04:17;;;;;;;8.50;4.00;;;23.90;48.30;;;;;;4368764;28;657633;-69
2022/10/18 12:07:05;;;;;;;12.80;4.10;;;23.40;48.40;;;;;;4368699;28;657852;-69
2022/10/18 12:09:52;;;;;;;8.50;3.70;;;23.20;50.80;;;;;;4348996;28;659363;-69
2022/10/18 12:12:45;;;;;;;7.23;3.83;;;22.70;49.30;;;;;;4370869;28;657934;-69
2022/10/18 12:15:35;;;;;;;8.77;3.60;;;22.50;49.50;;;;;;4331984;28;658308;-70
2022/10/18 12:18:24;;;;;;;7.63;3.53;;;23.10;48.40;;;;;;4350986;28;658161;-68
2022/10/18 12:21:11;;;;;;;5.67;3.50;;;22.50;49.30;;;;;;4346529;28;657561;-69
2022/10/18 12:24:00;;;;;;;8.03;3.43;;;22.40;51.70;;;;;;4364019;28;658022;-69
2022/10/18 12:26:48;;;;;;;12.60;3.80;;;22.40;50.70;;;;;;4345326;28;658379;-69
2022/10/18 12:29:39;;;;;;;8.93;3.60;;;21.90;49.20;;;;;;4358122;28;658778;-69
2022/10/18 12:32:29;;;;;;;7.70;3.70;;;23.40;50.20;;;;;;4347107;28;657683;-69
2022/10/18 12:35:16;;;;;;;7.43;3.87;;;23.60;48.50;;;;;;4347067;28;657837;-69
2022/10/18 12:38:13;;;;;;;10.63;4.00;;;23.30;49.40;;;;;;4368907;28;657651;-69
2022/10/18 12:41:00;;;;;;;7.87;3.53;;;24.40;49.30;;;;;;4328131;28;659435;-69
2022/10/18 12:43:51;;;;;;;8.57;3.80;;;24.50;47.60;;;;;;4374630;28;658174;-69
2022/10/18 12:46:47;;;;;;;5.27;3.13;;;25.00;48.50;;;;;;4351650;28;658162;-69
2022/10/18 12:49:35;;;;;;;6.90;4.20;;;24.80;46.00;;;;;;4347325;28;657422;-69
2022/10/18 12:52:23;;;;;;;7.23;3.60;;;24.90;48.70;;;;;;4343557;28;659080;-69
2022/10/18 12:55:29;;;;;;;10.40;4.47;;;24.50;47.10;;;;;;4352723;28;658324;-69
2022/10/18 12:58:30;;;;;;;15.03;4.23;;;24.70;48.50;;;;;;4347223;28;658447;-69
2022/10/18 13:01:17;;;;;;;12.40;4.00;;;25.80;46.20;;;;;;4322226;28;659038;-69
2022/10/18 13:04:26;;;;;;;8.90;4.53;;;26.60;44.60;;;;;;4366443;28;658527;-69
2022/10/18 13:07:21;;;;;;;8.40;4.18;;;27.30;44.00;;;;;;4346347;28;657956;-69
2022/10/18 13:10:39;;;;;;;8.40;4.28;;;27.10;42.30;;;;;;4351089;28;657607;-69
2022/10/18 13:13:45;;;;;;;9.10;3.90;;;27.70;42.70;;;;;;4352558;28;657717;-68
2022/10/18 13:16:37;;;;;;;11.30;4.38;;;26.50;41.90;;;;;;4323439;28;658483;-69
2022/10/18 13:19:27;;;;;;;10.00;4.28;;;25.80;44.90;;;;;;4350984;28;658771;-69
2022/10/18 13:22:23;;;;;;;13.63;4.70;;;26.70;44.00;;;;;;4348480;28;658757;-69
2022/10/18 13:25:15;;;;;;;9.75;4.28;;;27.10;42.40;;;;;;4337209;28;659685;-69
2022/10/18 13:28:05;;;;;;;11.23;4.00;;;27.40;41.20;;;;;;4346271;28;658880;-69
2022/10/18 13:30:54;;;;;;;13.95;4.07;;;26.40;42.10;;;;;;4341164;28;659824;-69
2022/10/18 13:33:41;;;;;;;7.47;4.13;;;26.50;43.80;;;;;;4354045;28;659013;-69
2022/10/18 13:36:28;;;;;;;8.80;4.67;;;27.50;43.30;;;;;;4369931;28;658215;-69
2022/10/18 13:39:20;;;;;;;9.52;4.07;;;26.10;43.30;;;;;;4346342;28;657754;-69
2022/10/18 13:42:29;;;;;;;15.82;4.72;;;25.30;43.40;;;;;;4348957;28;658548;-69
2022/10/18 13:45:52;;;;;;;6.28;3.75;;;25.60;44.00;;;;;;4319712;28;659384;-69
2022/10/18 13:48:49;;;;;;;7.70;4.47;;;24.90;45.30;;;;;;4350360;28;657612;-69
2022/10/18 13:51:48;;;;;;;6.80;3.88;;;24.80;45.30;;;;;;4357126;28;659272;-69
2022/10/18 13:54:45;;;;;;;7.18;4.18;;;25.70;44.50;;;;;;4354976;28;657477;-69
2022/10/18 13:57:45;;;;;;;12.30;4.15;;;25.50;45.90;;;;;;4328876;28;658237;-69
2022/10/18 14:00:47;;;;;;;10.85;4.50;;;26.20;44.10;;;;;;4322263;28;659136;-69
2022/10/18 14:04:03;;;;;;;12.18;4.28;;;25.80;44.90;;;;;;4355273;28;660087;-69
2022/10/18 14:06:50;;;;;;;9.73;4.80;;;25.00;47.40;;;;;;4277792;28;659231;-69
2022/10/18 14:09:45;;;;;;;7.07;4.00;;;24.00;48.10;;;;;;4374776;28;657045;-69
2022/10/18 14:12:34;;;;;;;14.18;4.80;;;24.10;48.00;;;;;;4325879;28;658309;-69
2022/10/18 14:15:24;;;;;;;10.05;5.22;;;25.10;47.70;;;;;;4346520;28;659392;-69
2022/10/18 14:18:13;;;;;;;10.88;4.80;;;24.90;46.10;;;;;;4344668;28;659080;-69
2022/10/18 14:21:01;;;;;;;11.45;3.88;;;25.30;46.40;;;;;;4344513;28;659924;-69
2022/10/18 14:23:48;;;;;;;10.00;4.45;;;25.60;46.30;;;;;;4369862;28;660114;-69
2022/10/18 14:26:37;;;;;;;9.25;5.07;;;24.60;46.80;;;;;;4343348;28;659754;-69
2022/10/18 14:29:24;;;;;;;8.80;4.67;;;23.50;49.40;;;;;;4372474;28;658714;-69